Time;durP1;ratioP1;P1;durP2;ratioP2;P2;SDS_P1;SDS_P2;PMS_P1;PMS_P2;Temp;Humidity;BMP_temperature;BMP_pressure;BME280_temperature;BME280_humidity;BME280_pressure;Samples;Min_cycle;Max_cycle;Signal;HPM_P1;HPM_P2
2023/01/25 00:01:04;;;;;;;;;;;;;;;-0.87;100.00;103474.44;10524889;28;20118;-77
2023/01/25 00:06:04;;;;;;;;;;;;;;;-0.93;100.00;103472.91;10513028;28;20003;-77
2023/01/25 00:11:05;;;;;;;;;;;;;;;-1.00;100.00;103459.00;10482470;28;19920;-77
2023/01/25 00:16:05;;;;;;;;;;;;;;;-1.03;100.00;103467.22;10524191;28;19974;-77
2023/01/25 00:21:15;;;;;;;;;;;;;;;-1.04;100.00;103462.78;10504888;28;19932;-77
2023/01/25 00:26:16;;;;;;;;;;;;;;;-1.01;100.00;103465.78;10484107;28;19920;-77
2023/01/25 00:31:35;;;;;;;;;;;;;;;-0.90;100.00;103467.25;10495763;28;19920;-77
2023/01/25 00:36:35;;;;;;;;;;;;;;;-0.95;100.00;103455.44;10507680;28;20280;-77
2023/01/25 00:41:36;;;;;;;;;;;;;;;-0.95;100.00;103458.00;10523251;28;19926;-77
2023/01/25 00:46:36;;;;;;;;;;;;;;;-1.04;100.00;103449.94;10523689;28;19920;-77
2023/01/25 00:51:36;;;;;;;;;;;;;;;-1.02;100.00;103445.03;10505148;28;19920;-77
2023/01/25 00:56:37;;;;;;;;;;;;;;;-1.11;100.00;103454.97;10480545;28;19930;-77
2023/01/25 01:01:37;;;;;;;;;;;;;;;-1.14;100.00;103449.41;10493875;28;19924;-76
2023/01/25 01:06:37;;;;;;;;;;;;;;;-1.11;100.00;103450.78;10487617;28;19924;-77
2023/01/25 01:11:38;;;;;;;;;;;;;;;-1.21;100.00;103448.56;10487369;28;20279;-76
2023/01/25 01:16:38;;;;;;;;;;;;;;;-1.25;100.00;103441.16;10469897;28;19920;-78
2023/01/25 01:21:38;;;;;;;;;;;;;;;-1.28;100.00;103440.75;10505319;28;20018;-78
2023/01/25 01:26:39;;;;;;;;;;;;;;;-1.22;100.00;103433.88;10487455;28;19997;-78
2023/01/25 01:31:39;;;;;;;;;;;;;;;-1.30;100.00;103439.59;10500087;28;19920;-78
2023/01/25 01:36:39;;;;;;;;;;;;;;;-1.37;100.00;103434.34;10499580;28;20425;-78
2023/01/25 01:41:40;;;;;;;;;;;;;;;-1.33;100.00;103429.84;10496387;28;19920;-77
2023/01/25 01:46:40;;;;;;;;;;;;;;;-1.21;100.00;103433.16;10506435;28;19935;-77
2023/01/25 01:51:45;;;;;;;;;;;;;;;-1.29;100.00;103431.19;10487266;28;19925;-77
2023/01/25 01:56:59;;;;;;;;;;;;;;;-1.36;100.00;103439.72;10485247;28;20419;-77
2023/01/25 02:01:59;;;;;;;;;;;;;;;-1.36;100.00;103443.91;10496078;28;19970;-77
2023/01/25 02:07:18;;;;;;;;;;;;;;;-1.34;100.00;103437.34;10508643;28;19993;-77
2023/01/25 02:12:19;;;;;;;;;;;;;;;-1.21;100.00;103425.44;10509835;28;19920;-77
2023/01/25 02:17:35;;;;;;;;;;;;;;;-1.30;100.00;103426.75;10509527;28;20390;-77
2023/01/25 02:22:51;;;;;;;;;;;;;;;-1.41;100.00;103434.63;10503389;28;19927;-77
2023/01/25 02:27:55;;;;;;;;;;;;;;;-1.46;100.00;103430.50;10494759;28;19931;-77
2023/01/25 02:32:55;;;;;;;;;;;;;;;-1.46;100.00;103423.75;10493354;28;19927;-78
2023/01/25 02:37:55;;;;;;;;;;;;;;;-1.48;100.00;103431.22;10505953;28;20371;-76
2023/01/25 02:42:56;;;;;;;;;;;;;;;-1.52;100.00;103423.81;10510650;28;19927;-78
2023/01/25 02:47:56;;;;;;;;;;;;;;;-1.42;100.00;103425.06;10488608;28;19924;-78
2023/01/25 02:52:57;;;;;;;;;;;;;;;-1.46;100.00;103418.59;10511796;28;19912;-77
2023/01/25 02:57:57;;;;;;;;;;;;;;;-1.53;100.00;103414.25;10506170;28;19927;-77
2023/01/25 03:02:57;;;;;;;;;;;;;;;-1.44;100.00;103408.53;10500311;28;20018;-77
2023/01/25 03:07:58;;;;;;;;;;;;;;;-1.54;100.00;103407.25;10523887;28;19977;-77
2023/01/25 03:12:58;;;;;;;;;;;;;;;-1.54;100.00;103397.00;10485456;28;20380;-77
2023/01/25 03:17:58;;;;;;;;;;;;;;;-1.55;100.00;103395.13;10526376;28;19919;-77
2023/01/25 03:22:59;;;;;;;;;;;;;;;-1.60;100.00;103390.09;10512888;28;19920;-78
2023/01/25 03:27:59;;;;;;;;;;;;;;;-1.50;100.00;103390.66;10511450;28;20275;-77
2023/01/25 03:32:59;;;;;;;;;;;;;;;-1.48;100.00;103392.69;10517807;28;19920;-77
2023/01/25 03:38:00;;;;;;;;;;;;;;;-1.35;100.00;103391.78;10490503;28;19981;-77
2023/01/25 03:43:00;;;;;;;;;;;;;;;-1.45;100.00;103378.41;10522770;28;19976;-77
2023/01/25 03:48:00;;;;;;;;;;;;;;;-1.50;100.00;103378.72;10507553;28;20367;-78
2023/01/25 03:53:05;;;;;;;;;;;;;;;-1.55;100.00;103384.88;10470732;28;20364;-78
2023/01/25 03:58:06;;;;;;;;;;;;;;;-1.51;100.00;103378.53;10485432;28;19924;-77
2023/01/25 04:03:06;;;;;;;;;;;;;;;-1.58;100.00;103378.41;10518368;28;19931;-77
2023/01/25 04:08:06;;;;;;;;;;;;;;;-1.60;100.00;103372.13;10493659;28;19924;-77
2023/01/25 04:13:07;;;;;;;;;;;;;;;-1.66;100.00;103365.44;10518660;28;19920;-78
2023/01/25 04:18:07;;;;;;;;;;;;;;;-1.45;100.00;103374.22;10484564;28;19921;-77
2023/01/25 04:23:08;;;;;;;;;;;;;;;-1.57;100.00;103363.19;10519266;28;19927;-77
2023/01/25 04:28:08;;;;;;;;;;;;;;;-1.56;100.00;103361.56;10520808;28;20378;-77
2023/01/25 04:33:10;;;;;;;;;;;;;;;-1.58;100.00;103360.41;10515639;28;20014;-76
2023/01/25 04:38:11;;;;;;;;;;;;;;;-1.54;100.00;103345.63;10488901;28;19943;-78
2023/01/25 04:43:11;;;;;;;;;;;;;;;-1.55;100.00;103341.19;10490561;28;19931;-77
2023/01/25 04:48:12;;;;;;;;;;;;;;;-1.61;100.00;103331.75;10520971;28;19928;-77
2023/01/25 04:53:12;;;;;;;;;;;;;;;-1.62;100.00;103323.09;10499668;28;20281;-77
2023/01/25 04:58:12;;;;;;;;;;;;;;;-1.67;100.00;103324.13;10502693;28;19927;-78
2023/01/25 05:03:13;;;;;;;;;;;;;;;-1.68;100.00;103327.41;10502825;28;19924;-77
2023/01/25 05:08:13;;;;;;;;;;;;;;;-1.64;100.00;103322.91;10501806;28;20015;-77
2023/01/25 05:13:13;;;;;;;;;;;;;;;-1.66;100.00;103313.13;10508809;28;19963;-78
2023/01/25 05:18:14;;;;;;;;;;;;;;;-1.72;100.00;103314.84;10513826;28;19920;-77
2023/01/25 05:23:14;;;;;;;;;;;;;;;-1.67;100.00;103317.34;10529329;28;19935;-78
2023/01/25 05:28:14;;;;;;;;;;;;;;;-1.64;100.00;103320.34;10518360;28;20372;-78
2023/01/25 05:33:15;;;;;;;;;;;;;;;-1.64;100.00;103315.19;10481667;28;19917;-76
2023/01/25 05:38:15;;;;;;;;;;;;;;;-1.65;100.00;103314.97;10507787;28;19919;-76
2023/01/25 05:43:15;;;;;;;;;;;;;;;-1.72;100.00;103312.28;10499726;28;19972;-76
2023/01/25 05:48:16;;;;;;;;;;;;;;;-1.80;100.00;103313.81;10511631;28;20282;-76
2023/01/25 05:53:16;;;;;;;;;;;;;;;-1.78;100.00;103314.97;10527342;28;19964;-77
2023/01/25 05:58:16;;;;;;;;;;;;;;;-1.81;100.00;103310.31;10508705;28;20014;-77
2023/01/25 06:03:17;;;;;;;;;;;;;;;-1.79;100.00;103307.97;10491915;28;19920;-77
2023/01/25 06:08:17;;;;;;;;;;;;;;;-1.79;100.00;103308.88;10489044;28;19920;-77
2023/01/25 06:13:17;;;;;;;;;;;;;;;-1.79;100.00;103311.44;10505175;28;20381;-78
2023/01/25 06:18:18;;;;;;;;;;;;;;;-1.80;100.00;103301.00;10494832;28;19920;-78
2023/01/25 06:23:18;;;;;;;;;;;;;;;-1.84;100.00;103299.63;10522001;28;19930;-78
2023/01/25 06:28:18;;;;;;;;;;;;;;;-1.85;100.00;103304.56;10527443;28;19935;-77
2023/01/25 06:33:19;;;;;;;;;;;;;;;-1.86;100.00;103303.63;10521773;28;20262;-77
2023/01/25 06:38:19;;;;;;;;;;;;;;;-1.72;100.00;103296.88;10504312;28;20364;-77
2023/01/25 06:43:19;;;;;;;;;;;;;;;-1.67;100.00;103294.25;10506905;28;19928;-77
2023/01/25 06:48:20;;;;;;;;;;;;;;;-1.73;100.00;103295.03;10503544;28;20295;-78
2023/01/25 06:53:20;;;;;;;;;;;;;;;-1.63;100.00;103283.66;10504332;28;19920;-77
2023/01/25 06:58:21;;;;;;;;;;;;;;;-1.68;100.00;103287.25;10493117;28;19946;-78
2023/01/25 07:03:21;;;;;;;;;;;;;;;-1.77;100.00;103289.47;10497273;28;19924;-77
2023/01/25 07:08:21;;;;;;;;;;;;;;;-1.74;100.00;103295.75;10508194;28;20727;-78
2023/01/25 07:13:22;;;;;;;;;;;;;;;-1.48;100.00;103295.06;10527401;28;20911;-77
2023/01/25 07:18:22;;;;;;;;;;;;;;;-1.53;100.00;103290.97;10505652;28;19977;-77
2023/01/25 07:23:23;;;;;;;;;;;;;;;-1.48;100.00;103289.03;10516843;28;19969;-77
2023/01/25 07:28:24;;;;;;;;;;;;;;;-1.57;100.00;103288.69;10504479;28;20007;-77
2023/01/25 07:33:24;;;;;;;;;;;;;;;-1.44;100.00;103288.72;10521866;28;19920;-78
2023/01/25 07:38:24;;;;;;;;;;;;;;;-1.62;100.00;103294.84;10482540;28;19920;-78
2023/01/25 07:43:25;;;;;;;;;;;;;;;-1.71;100.00;103293.59;10522582;28;20426;-77
2023/01/25 07:48:25;;;;;;;;;;;;;;;-1.71;100.00;103286.84;10495280;28;20395;-77
2023/01/25 07:53:26;;;;;;;;;;;;;;;-1.73;100.00;103288.28;10525205;28;19923;-78
2023/01/25 07:58:26;;;;;;;;;;;;;;;-1.76;100.00;103280.16;10465884;28;19935;-77
2023/01/25 08:03:27;;;;;;;;;;;;;;;-1.70;100.00;103280.03;10508130;28;19920;-77
2023/01/25 08:08:27;;;;;;;;;;;;;;;-1.79;100.00;103274.59;10480187;28;19988;-77
2023/01/25 08:13:27;;;;;;;;;;;;;;;-1.69;100.00;103285.41;10488812;28;20014;-77
2023/01/25 08:18:28;;;;;;;;;;;;;;;-1.85;100.00;103290.06;10502263;28;19951;-77
2023/01/25 08:23:28;;;;;;;;;;;;;;;-1.75;100.00;103282.00;10480294;28;19921;-76
2023/01/25 08:28:28;;;;;;;;;;;;;;;-1.83;100.00;103280.94;10477675;28;19921;-77
2023/01/25 08:33:29;;;;;;;;;;;;;;;-1.86;100.00;103277.06;10498847;28;19921;-75
2023/01/25 08:38:30;;;;;;;;;;;;;;;-1.81;100.00;103273.47;10480242;28;20022;-76
2023/01/25 08:43:30;;;;;;;;;;;;;;;-1.77;100.00;103263.81;10499031;28;19930;-76
2023/01/25 08:48:30;;;;;;;;;;;;;;;-1.80;100.00;103265.94;10483269;28;20338;-76
2023/01/25 08:53:31;;;;;;;;;;;;;;;-1.80;100.00;103270.19;10505506;28;19920;-76
2023/01/25 08:58:31;;;;;;;;;;;;;;;-1.83;100.00;103252.69;10505403;28;19920;-75
2023/01/25 09:03:35;;;;;;;;;;;;;;;-1.79;100.00;103259.19;10524408;28;20257;-75
2023/01/25 09:08:36;;;;;;;;;;;;;;;-1.82;100.00;103258.78;10504704;28;19995;-75
2023/01/25 09:13:37;;;;;;;;;;;;;;;-1.75;100.00;103260.53;10506119;28;19965;-75
2023/01/25 09:18:38;;;;;;;;;;;;;;;-1.74;100.00;103250.47;10522109;28;20003;-77
2023/01/25 09:23:38;;;;;;;;;;;;;;;-1.82;100.00;103248.50;10505275;28;19916;-76
2023/01/25 09:28:38;;;;;;;;;;;;;;;-1.71;100.00;103243.19;10522598;28;19920;-76
2023/01/25 09:33:39;;;;;;;;;;;;;;;-1.80;100.00;103242.84;10522959;28;20012;-77
2023/01/25 09:38:39;;;;;;;;;;;;;;;-1.56;100.00;103234.03;10502281;28;20010;-76
2023/01/25 09:43:42;;;;;;;;;;;;;;;-1.34;100.00;103239.47;10504944;28;20391;-75
2023/01/25 09:49:12;;;;;;;;;;;;;;;-1.53;100.00;103229.31;10527707;28;19920;-76
2023/01/25 09:54:12;;;;;;;;;;;;;;;-1.51;100.00;103224.41;10458467;28;20267;-76
2023/01/25 09:59:15;;;;;;;;;;;;;;;-1.53;100.00;103226.75;10509358;28;19927;-75
2023/01/25 10:04:16;;;;;;;;;;;;;;;-1.59;100.00;103235.28;10512417;28;19965;-76
2023/01/25 10:09:26;;;;;;;;;;;;;;;-1.54;100.00;103232.59;10509391;28;20373;-76
2023/01/25 10:14:26;;;;;;;;;;;;;;;-1.49;100.00;103229.00;10483837;28;19920;-76
2023/01/25 10:19:37;;;;;;;;;;;;;;;-1.56;100.00;103216.06;10483957;28;19920;-76
2023/01/25 10:24:38;;;;;;;;;;;;;;;-1.74;100.00;103222.22;10487634;28;19924;-76
2023/01/25 10:29:38;;;;;;;;;;;;;;;-1.77;100.00;103220.16;10487201;28;20356;-76
2023/01/25 10:34:39;;;;;;;;;;;;;;;-1.66;100.00;103210.41;10486218;28;19924;-76
2023/01/25 10:40:00;;;;;;;;;;;;;;;-1.58;100.00;103194.38;10488258;28;19921;-76
2023/01/25 10:45:00;;;;;;;;;;;;;;;-1.46;100.00;103187.41;10488178;28;19917;-75
2023/01/25 10:50:00;;;;;;;;;;;;;;;-1.44;100.00;103185.03;10484783;28;19928;-76
2023/01/25 10:55:14;;;;;;;;;;;;;;;-1.51;100.00;103183.31;10469359;28;19920;-76
2023/01/25 11:00:34;;;;;;;;;;;;;;;-1.48;100.00;103171.78;10478464;28;19939;-75
2023/01/25 11:05:36;;;;;;;;;;;;;;;-1.51;100.00;103147.34;10479981;28;20018;-75
2023/01/25 11:10:37;;;;;;;;;;;;;;;-1.52;100.00;103143.81;10480348;28;19996;-75
2023/01/25 11:15:37;;;;;;;;;;;;;;;-1.54;100.00;103137.56;10473862;28;19934;-75
2023/01/25 11:20:37;;;;;;;;;;;;;;;-1.52;100.00;103133.56;10477877;28;19920;-75
2023/01/25 11:25:38;;;;;;;;;;;;;;;-1.54;100.00;103119.59;10473879;28;19920;-75
2023/01/25 11:30:38;;;;;;;;;;;;;;;-1.52;100.00;103115.56;10465649;28;20340;-75
2023/01/25 11:35:51;;;;;;;;;;;;;;;-1.30;100.00;103104.66;10466897;28;20410;-76
2023/01/25 11:41:30;;;;;;;;;;;;;;;-1.24;100.00;103085.81;10470072;28;20011;-75
2023/01/25 11:46:37;;;;;;;;;;;;;;;-1.36;100.00;103086.78;10350626;28;19921;-75
2023/01/25 11:51:40;;;;;;;;;;;;;;;-1.48;100.00;103075.81;10440393;28;19928;-75
2023/01/25 11:56:59;;;;;;;;;;;;;;;-1.49;100.00;103063.69;10474703;28;20280;-75
2023/01/25 12:02:03;;;;;;;;;;;;;;;-1.57;100.00;103047.25;10448692;28;19927;-77
2023/01/25 12:07:04;;;;;;;;;;;;;;;-1.71;100.00;103031.69;10463502;28;20311;-75
2023/01/25 12:12:14;;;;;;;;;;;;;;;-1.64;100.00;103013.78;10479626;28;19928;-79
2023/01/25 12:17:14;;;;;;;;;;;;;;;-1.65;100.00;103007.75;10491976;28;19920;-79
2023/01/25 12:22:19;;;;;;;;;;;;;;;-1.70;100.00;102985.69;10518238;28;20371;-76
2023/01/25 12:27:31;;;;;;;;;;;;;;;-1.58;100.00;102978.66;10486280;28;19972;-76
2023/01/25 12:32:52;;;;;;;;;;;;;;;-1.53;100.00;102951.00;10505696;28;19932;-75
2023/01/25 12:37:54;;;;;;;;;;;;;;;-1.52;100.00;102942.56;10501913;28;19971;-76
2023/01/25 12:42:56;;;;;;;;;;;;;;;-1.52;100.00;102940.00;10506551;28;19966;-75
2023/01/25 12:47:59;;;;;;;;;;;;;;;-1.53;100.00;102922.75;10464601;28;19964;-76
2023/01/25 12:53:09;;;;;;;;;;;;;;;-1.49;100.00;102913.06;10479177;28;20371;-76
2023/01/25 12:58:28;;;;;;;;;;;;;;;-1.57;100.00;102897.41;10505996;28;19920;-76
2023/01/25 13:03:40;;;;;;;;;;;;;;;-1.58;100.00;102883.63;10523267;28;19924;-76
2023/01/25 13:08:40;;;;;;;;;;;;;;;-1.58;100.00;102875.91;10495973;28;19927;-76
2023/01/25 13:13:41;;;;;;;;;;;;;;;-1.57;100.00;102872.63;10523757;28;19943;-76
2023/01/25 13:18:41;;;;;;;;;;;;;;;-1.53;100.00;102866.25;10491299;28;19926;-77
2023/01/25 13:23:49;;;;;;;;;;;;;;;-1.65;100.00;102863.00;10510521;28;20484;-76
2023/01/25 13:28:50;;;;;;;;;;;;;;;-1.85;100.00;102868.16;10530367;28;20010;-76
2023/01/25 13:33:50;;;;;;;;;;;;;;;-1.92;100.00;102862.22;10530457;28;20294;-76
2023/01/25 13:38:51;;;;;;;;;;;;;;;-1.96;100.00;102854.84;10509391;28;20356;-76
2023/01/25 13:43:53;;;;;;;;;;;;;;;-1.94;100.00;102849.91;10526522;28;19927;-76
2023/01/25 13:48:58;;;;;;;;;;;;;;;-1.92;100.00;102848.44;10496304;28;19977;-77
2023/01/25 13:53:59;;;;;;;;;;;;;;;-1.95;100.00;102850.63;10504689;28;20394;-76
2023/01/25 13:58:59;;;;;;;;;;;;;;;-1.92;100.00;102836.56;10489462;28;19973;-76
2023/01/25 14:04:01;;;;;;;;;;;;;;;-2.02;100.00;102833.53;10497911;28;19924;-76
2023/01/25 14:09:07;;;;;;;;;;;;;;;-1.97;100.00;102834.09;10508016;28;19923;-76
2023/01/25 14:14:17;;;;;;;;;;;;;;;-1.93;100.00;102829.59;10505527;28;19923;-75
2023/01/25 14:19:20;;;;;;;;;;;;;;;-1.83;100.00;102815.38;10512805;28;19969;-76
2023/01/25 14:24:20;;;;;;;;;;;;;;;-1.90;100.00;102826.47;10526345;28;19973;-77
2023/01/25 14:29:21;;;;;;;;;;;;;;;-2.00;100.00;102808.97;10510523;28;19973;-78
2023/01/25 14:34:21;;;;;;;;;;;;;;;-2.05;100.00;102810.03;10503034;28;19930;-76
2023/01/25 14:39:24;;;;;;;;;;;;;;;-2.07;100.00;102804.69;10494589;28;19924;-76
2023/01/25 14:44:24;;;;;;;;;;;;;;;-2.11;100.00;102791.28;10502704;28;19920;-76
2023/01/25 14:49:25;;;;;;;;;;;;;;;-2.03;100.00;102795.75;10478693;28;19944;-75
2023/01/25 14:54:26;;;;;;;;;;;;;;;-2.11;100.00;102801.53;10505676;28;19999;-76
2023/01/25 14:59:33;;;;;;;;;;;;;;;-2.15;100.00;102796.72;10513225;28;19920;-75
2023/01/25 15:04:34;;;;;;;;;;;;;;;-2.08;100.00;102791.66;10479562;28;19927;-76
2023/01/25 15:09:39;;;;;;;;;;;;;;;-2.10;100.00;102787.97;10506808;28;20364;-78
2023/01/25 15:14:46;;;;;;;;;;;;;;;-2.11;100.00;102783.56;10483687;28;20037;-75
2023/01/25 15:19:50;;;;;;;;;;;;;;;-2.18;100.00;102792.09;10459886;28;20399;-75
2023/01/25 15:24:50;;;;;;;;;;;;;;;-2.32;100.00;102785.19;10511551;28;19967;-75
2023/01/25 15:29:51;;;;;;;;;;;;;;;-2.44;100.00;102774.25;10505750;28;19924;-75
2023/01/25 15:34:51;;;;;;;;;;;;;;;-2.48;100.00;102772.00;10507706;28;19931;-75
2023/01/25 15:39:51;;;;;;;;;;;;;;;-2.55;100.00;102766.78;10517843;28;19927;-75
2023/01/25 15:44:52;;;;;;;;;;;;;;;-2.48;100.00;102753.16;10482762;28;19959;-75
2023/01/25 15:49:52;;;;;;;;;;;;;;;-2.55;100.00;102759.09;10497158;28;19986;-76
2023/01/25 15:54:53;;;;;;;;;;;;;;;-2.56;100.00;102757.25;10509311;28;19927;-76
2023/01/25 15:59:56;;;;;;;;;;;;;;;-2.59;100.00;102742.41;10486760;28;19928;-77
2023/01/25 16:04:56;;;;;;;;;;;;;;;-2.67;100.00;102745.63;10486158;28;20313;-75
2023/01/25 16:09:56;;;;;;;;;;;;;;;-2.67;100.00;102743.97;10482439;28;19920;-76
2023/01/25 16:15:00;;;;;;;;;;;;;;;-2.62;100.00;102748.75;10513772;28;20379;-76
2023/01/25 16:20:00;;;;;;;;;;;;;;;-2.57;100.00;102745.16;10462900;28;19924;-75
2023/01/25 16:25:03;;;;;;;;;;;;;;;-2.62;100.00;102747.13;10478720;28;19989;-75
2023/01/25 16:30:04;;;;;;;;;;;;;;;-2.63;100.00;102746.91;10492609;28;20033;-79
2023/01/25 16:35:04;;;;;;;;;;;;;;;-2.60;100.00;102743.13;10477630;28;19928;-76
2023/01/25 16:40:05;;;;;;;;;;;;;;;-2.62;100.00;102738.50;10499997;28;20003;-76
2023/01/25 16:45:06;;;;;;;;;;;;;;;-2.71;100.00;102728.91;10469963;28;19920;-76
2023/01/25 16:50:13;;;;;;;;;;;;;;;-2.70;100.00;102725.59;10480981;28;19931;-76
2023/01/25 16:55:13;;;;;;;;;;;;;;;-2.77;100.00;102738.34;10483760;28;20390;-76
2023/01/25 17:00:13;;;;;;;;;;;;;;;-2.75;100.00;102725.75;10502749;28;19927;-75
2023/01/25 17:05:14;;;;;;;;;;;;;;;-2.74;100.00;102725.94;10514225;28;20007;-77
2023/01/25 17:10:14;;;;;;;;;;;;;;;-2.76;100.00;102729.94;10483006;28;20280;-77
2023/01/25 17:15:18;;;;;;;;;;;;;;;-2.78;100.00;102731.38;10497807;28;19972;-77
2023/01/25 17:20:19;;;;;;;;;;;;;;;-2.79;100.00;102741.44;10498322;28;20033;-76
2023/01/25 17:25:19;;;;;;;;;;;;;;;-2.79;100.00;102744.00;10515067;28;19927;-75
2023/01/25 17:30:19;;;;;;;;;;;;;;;-2.86;100.00;102745.75;10484275;28;19925;-76
2023/01/25 17:35:20;;;;;;;;;;;;;;;-2.87;100.00;102749.03;10516732;28;19920;-76
2023/01/25 17:40:20;;;;;;;;;;;;;;;-2.89;100.00;102749.53;10482958;28;19921;-76
2023/01/25 17:45:20;;;;;;;;;;;;;;;-2.90;100.00;102742.56;10505330;28;20010;-77
2023/01/25 17:50:21;;;;;;;;;;;;;;;-2.84;100.00;102736.63;10496812;28;19959;-77
2023/01/25 17:55:21;;;;;;;;;;;;;;;-2.90;100.00;102737.44;10487345;28;19927;-77
2023/01/25 18:00:21;;;;;;;;;;;;;;;-2.99;100.00;102719.25;10502021;28;19927;-78
2023/01/25 18:05:23;;;;;;;;;;;;;;;-2.88;100.00;102702.69;10492249;28;20312;-78
2023/01/25 18:10:24;;;;;;;;;;;;;;;-3.05;100.00;102695.38;10514998;28;19920;-81
2023/01/25 18:15:25;;;;;;;;;;;;;;;-3.13;100.00;102678.97;10528318;28;19920;-78
2023/01/25 18:20:25;;;;;;;;;;;;;;;-3.19;100.00;102684.22;10504073;28;20276;-78
2023/01/25 18:25:27;;;;;;;;;;;;;;;-3.25;100.00;102671.53;10520712;28;19928;-77
2023/01/25 18:30:27;;;;;;;;;;;;;;;-3.29;100.00;102641.09;10509204;28;20264;-78
2023/01/25 18:35:27;;;;;;;;;;;;;;;-3.31;100.00;102633.94;10527588;28;19928;-78
2023/01/25 18:40:29;;;;;;;;;;;;;;;-3.32;100.00;102622.78;10503895;28;20360;-78
2023/01/25 18:45:29;;;;;;;;;;;;;;;-3.35;100.00;102611.22;10485889;28;19924;-78
2023/01/25 18:50:30;;;;;;;;;;;;;;;-3.30;100.00;102611.09;10492330;28;20288;-78
2023/01/25 18:55:30;;;;;;;;;;;;;;;-3.30;100.00;102575.25;10500928;28;19920;-77
2023/01/25 19:00:31;;;;;;;;;;;;;;;-3.32;100.00;102566.44;10471949;28;19927;-79
2023/01/25 19:05:31;;;;;;;;;;;;;;;-3.32;100.00;102586.91;10509203;28;20264;-79
2023/01/25 19:10:32;;;;;;;;;;;;;;;-3.23;100.00;102568.34;10505056;28;19930;-77
2023/01/25 19:15:32;;;;;;;;;;;;;;;-3.32;100.00;102568.09;10470976;28;19924;-78
2023/01/25 19:20:32;;;;;;;;;;;;;;;-3.32;100.00;102566.44;10490313;28;20023;-79
2023/01/25 19:25:33;;;;;;;;;;;;;;;-3.32;100.00;102574.13;10515983;28;19990;-82
2023/01/25 19:30:33;;;;;;;;;;;;;;;-3.37;100.00;102580.28;10509680;28;19920;-77
2023/01/25 19:35:33;;;;;;;;;;;;;;;-3.43;100.00;102569.22;10472765;28;19920;-78
2023/01/25 19:40:34;;;;;;;;;;;;;;;-3.39;100.00;102563.78;10490619;28;19928;-77
2023/01/25 19:45:34;;;;;;;;;;;;;;;-3.37;100.00;102559.78;10527640;28;20372;-77
2023/01/25 19:50:34;;;;;;;;;;;;;;;-3.34;100.00;102542.28;10513815;28;19976;-78
2023/01/25 19:55:35;;;;;;;;;;;;;;;-3.17;100.00;102536.78;10513335;28;20007;-78
2023/01/25 20:00:35;;;;;;;;;;;;;;;-3.20;100.00;102545.69;10497333;28;19931;-77
2023/01/25 20:05:35;;;;;;;;;;;;;;;-3.32;100.00;102532.25;10500465;28;19924;-78
2023/01/25 20:10:36;;;;;;;;;;;;;;;-3.31;100.00;102532.44;10495552;28;19999;-77
2023/01/25 20:15:36;;;;;;;;;;;;;;;-3.33;100.00;102526.19;10504730;28;20339;-79
2023/01/25 20:20:36;;;;;;;;;;;;;;;-3.29;100.00;102505.38;10508042;28;19975;-77
2023/01/25 20:25:37;;;;;;;;;;;;;;;-3.26;100.00;102510.00;10497876;28;19921;-77
2023/01/25 20:30:38;;;;;;;;;;;;;;;-3.33;100.00;102500.56;10481659;28;20011;-78
2023/01/25 20:35:39;;;;;;;;;;;;;;;-3.35;100.00;102494.34;10492185;28;19924;-77
2023/01/25 20:40:39;;;;;;;;;;;;;;;-3.37;100.00;102493.22;10463209;28;20337;-78
2023/01/25 20:45:40;;;;;;;;;;;;;;;-3.46;100.00;102503.19;10505250;28;20288;-76
2023/01/25 20:50:40;;;;;;;;;;;;;;;-3.48;100.00;102506.25;10510871;28;20287;-77
2023/01/25 20:55:40;;;;;;;;;;;;;;;-3.54;100.00;102517.53;10500523;28;20312;-77
2023/01/25 21:00:41;;;;;;;;;;;;;;;-3.52;100.00;102501.47;10487078;28;19928;-76
2023/01/25 21:05:51;;;;;;;;;;;;;;;-3.56;100.00;102507.84;10514975;28;19928;-77
2023/01/25 21:10:55;;;;;;;;;;;;;;;-3.49;100.00;102517.22;10492278;28;19947;-77
2023/01/25 21:15:56;;;;;;;;;;;;;;;-3.48;100.00;102517.44;10512406;28;19920;-77
2023/01/25 21:21:09;;;;;;;;;;;;;;;-3.54;100.00;102502.19;10504159;28;19920;-76
2023/01/25 21:26:13;;;;;;;;;;;;;;;-3.49;100.00;102500.25;10477676;28;19924;-76
2023/01/25 21:31:26;;;;;;;;;;;;;;;-3.46;100.00;102481.78;10466937;28;19924;-76
2023/01/25 21:36:27;;;;;;;;;;;;;;;-3.37;100.00;102485.53;10491024;28;19926;-76
2023/01/25 21:41:28;;;;;;;;;;;;;;;-3.39;100.00;102497.22;10498857;28;19917;-75
2023/01/25 21:46:28;;;;;;;;;;;;;;;-3.44;100.00;102488.97;10480056;28;20424;-76
2023/01/25 21:51:35;;;;;;;;;;;;;;;-3.42;100.00;102477.28;10496555;28;19980;-76
2023/01/25 21:56:35;;;;;;;;;;;;;;;-3.54;100.00;102483.38;10486881;28;19928;-76
2023/01/25 22:01:35;;;;;;;;;;;;;;;-3.55;100.00;102492.66;10489477;28;19931;-77
2023/01/25 22:06:36;;;;;;;;;;;;;;;-3.59;100.00;102476.72;10483170;28;19924;-76
2023/01/25 22:11:36;;;;;;;;;;;;;;;-3.61;100.00;102479.06;10489100;28;19930;-77
2023/01/25 22:16:37;;;;;;;;;;;;;;;-3.70;100.00;102476.25;10512207;28;20378;-76
2023/01/25 22:21:37;;;;;;;;;;;;;;;-3.50;100.00;102477.00;10511556;28;19962;-77
2023/01/25 22:26:50;;;;;;;;;;;;;;;-3.37;100.00;102480.41;10498116;28;19977;-77
2023/01/25 22:31:50;;;;;;;;;;;;;;;-3.33;100.00;102480.09;10483207;28;20287;-76
2023/01/25 22:36:51;;;;;;;;;;;;;;;-3.47;100.00;102465.53;10497815;28;19976;-76
2023/01/25 22:41:51;;;;;;;;;;;;;;;-3.52;100.00;102457.94;10508567;28;19932;-77
2023/01/25 22:46:52;;;;;;;;;;;;;;;-3.58;100.00;102451.31;10528234;28;19927;-75
2023/01/25 22:51:52;;;;;;;;;;;;;;;-3.50;100.00;102442.09;10510406;28;19993;-76
2023/01/25 22:56:53;;;;;;;;;;;;;;;-3.50;100.00;102434.41;10530130;28;20794;-76
2023/01/25 23:01:53;;;;;;;;;;;;;;;-3.49;100.00;102427.63;10526002;28;19920;-76
2023/01/25 23:07:01;;;;;;;;;;;;;;;-3.54;100.00;102404.91;10506431;28;19920;-76
2023/01/25 23:12:01;;;;;;;;;;;;;;;-3.58;100.00;102396.66;10470008;28;20359;-76
2023/01/25 23:22:21;;;;;;;;;;;;;;;-3.59;100.00;102382.94;10472366;28;20265;-76
2023/01/25 23:27:21;;;;;;;;;;;;;;;-3.59;100.00;102376.91;10503326;28;19920;-76
2023/01/25 23:32:21;;;;;;;;;;;;;;;-3.61;100.00;102375.78;10503730;28;19927;-76
2023/01/25 23:37:22;;;;;;;;;;;;;;;-3.58;100.00;102389.88;10491722;28;20014;-76
2023/01/25 23:42:23;;;;;;;;;;;;;;;-3.56;100.00;102395.22;10512557;28;19924;-76
2023/01/25 23:47:23;;;;;;;;;;;;;;;-3.54;100.00;102389.56;10502677;28;19920;-77
2023/01/25 23:52:23;;;;;;;;;;;;;;;-3.55;100.00;102381.69;10489090;28;19924;-76
2023/01/25 23:57:24;;;;;;;;;;;;;;;-3.60;100.00;102377.63;10491238;28;20019;-76
